Time;durP1;ratioP1;P1;durP2;ratioP2;P2;SDS_P1;SDS_P2;PMS_P1;PMS_P2;Temp;Humidity;BMP_temperature;BMP_pressure;BME280_temperature;BME280_humidity;BME280_pressure;Samples;Min_cycle;Max_cycle;Signal;HPM_P1;HPM_P2
2023/06/07 00:02:30;;;;;;;4.05;2.00;;;;;;;18.57;78.48;100647.97;10420658;28;20095;-73
2023/06/07 00:07:32;;;;;;;5.40;1.95;;;;;;;18.50;78.06;100650.69;10425262;28;20136;-73
2023/06/07 00:12:33;;;;;;;5.30;1.90;;;;;;;18.47;77.32;100651.13;10445355;28;20048;-72
2023/06/07 00:17:37;;;;;;;6.97;1.90;;;;;;;18.28;78.28;100617.88;10423512;28;20441;-73
2023/06/07 00:22:38;;;;;;;;;;;;;;;18.61;78.43;100657.28;10419695;28;20048;-73
2023/06/07 00:27:39;;;;;;;3.53;2.00;;;;;;;18.29;78.93;100648.28;10460322;28;19970;-73
2023/06/07 00:32:40;;;;;;;3.42;1.77;;;;;;;18.20;78.97;100637.75;10458729;28;20099;-73
2023/06/07 00:37:41;;;;;;;8.43;1.95;;;;;;;18.01;80.03;100617.94;10459394;28;20037;-73
2023/06/07 00:42:42;;;;;;;3.95;1.70;;;;;;;17.90;79.52;100623.13;10455194;28;20041;-73
2023/06/07 00:47:43;;;;;;;12.27;2.22;;;;;;;17.45;80.09;100556.59;10400745;28;20037;-73
2023/06/07 00:52:44;;;;;;;27.85;4.05;;;;;;;17.36;80.62;100562.41;10417376;28;20060;-72
2023/06/07 00:57:45;;;;;;;28.92;3.78;;;;;;;17.23;81.32;100552.47;10417871;28;20041;-72
2023/06/07 01:02:49;;;;;;;14.23;3.15;;;;;;;17.79;82.48;100667.59;10418036;28;20052;-73
2023/06/07 01:07:50;;;;;;;7.30;2.10;;;;;;;17.72;81.75;100653.31;10417672;28;20488;-73
2023/06/07 01:12:54;;;;;;;27.75;3.97;;;;;;;17.75;83.66;100663.63;10417182;28;20041;-73
2023/06/07 01:17:57;;;;;;;22.77;3.28;;;;;;;17.85;82.97;100668.63;10417105;28;20501;-73
2023/06/07 01:23:04;;;;;;;17.53;4.00;;;;;;;17.86;83.75;100670.25;10416859;28;20045;-73
2023/06/07 01:28:06;;;;;;;53.05;5.57;;;;;;;17.45;83.12;100594.22;10455909;28;20036;-72
2023/06/07 01:33:08;;;;;;;6.93;2.22;;;;;;;17.84;82.12;100653.53;10457643;28;20511;-73
2023/06/07 01:38:09;;;;;;;11.35;3.33;;;;;;;17.95;81.53;100669.84;10456897;28;20519;-73
2023/06/07 01:43:10;;;;;;;20.88;5.03;;;;;;;17.98;82.09;100674.00;10456646;28;20045;-72
2023/06/07 01:48:11;;;;;;;23.92;4.80;;;;;;;17.97;82.37;100683.06;10439229;28;20045;-73
2023/06/07 01:53:12;;;;;;;43.00;6.32;;;;;;;17.50;82.80;100604.31;10456860;28;20076;-73
2023/06/07 01:58:23;;;;;;;18.85;5.28;;;;;;;17.98;84.97;100690.13;10456199;28;20072;-72
2023/06/07 02:03:26;;;;;;;17.75;4.85;;;;;;;18.00;84.16;100688.03;10435728;28;20576;-73
2023/06/07 02:08:34;;;;;;;8.05;4.95;;;;;;;17.57;86.00;100618.59;10422900;28;20061;-73
2023/06/07 02:13:38;;;;;;;12.30;4.60;;;;;;;17.89;84.91;100670.69;10414247;28;20037;-73
2023/06/07 02:18:42;;;;;;;30.55;5.80;;;;;;;17.98;85.57;100682.06;10396601;28;20045;-73
2023/06/07 02:23:42;;;;;;;38.47;6.37;;;;;;;18.02;85.50;100683.28;10414616;28;20048;-73
2023/06/07 02:28:43;;;;;;;50.88;4.85;;;;;;;18.03;85.97;100677.69;10413757;28;20279;-73
2023/06/07 02:33:44;;;;;;;26.10;4.63;;;;;;;18.01;86.21;100673.59;10395955;28;20080;-72
2023/06/07 02:38:45;;;;;;;58.25;4.95;;;;;;;18.07;86.35;100686.19;10413592;28;20029;-72
2023/06/07 02:43:45;;;;;;;27.77;3.47;;;;;;;18.23;86.33;100701.88;10413688;28;20045;-73
2023/06/07 02:48:46;;;;;;;9.40;3.83;;;;;;;17.96;86.45;100643.81;10414300;28;20171;-73
2023/06/07 02:53:49;;;;;;;5.55;3.45;;;;;;;18.23;86.13;100685.72;10413290;28;20417;-73
2023/06/07 02:58:49;;;;;;;6.70;3.42;;;;;;;18.06;85.86;100638.00;10412981;28;20067;-73
2023/06/07 03:03:50;;;;;;;5.63;2.30;;;;;;;18.54;85.38;100719.16;10413381;28;20046;-73
2023/06/07 03:08:51;;;;;;;4.38;2.13;;;;;;;18.18;84.58;100641.69;10395683;28;20057;-73
2023/06/07 03:13:52;;;;;;;9.93;2.47;;;;;;;18.59;84.67;100687.09;10413071;28;20069;-73
2023/06/07 03:18:53;;;;;;;4.53;2.40;;;;;;;18.39;83.69;100654.84;10413495;28;20076;-73
2023/06/07 03:23:53;;;;;;;13.63;3.10;;;;;;;19.01;83.96;100727.94;10395546;28;20056;-73
2023/06/07 03:28:54;;;;;;;6.63;2.35;;;;;;;19.02;82.22;100718.00;10412584;28;20047;-73
2023/06/07 03:33:55;;;;;;;4.22;2.25;;;;;;;19.10;79.87;100734.72;10412737;28;20049;-73
2023/06/07 03:38:58;;;;;;;5.38;2.40;;;;;;;19.19;78.40;100740.69;10412512;28;20034;-73
2023/06/07 03:43:59;;;;;;;5.72;2.95;;;;;;;19.46;77.93;100751.31;10418502;28;20132;-73
2023/06/07 03:48:59;;;;;;;8.40;2.22;;;;;;;19.59;77.77;100764.72;10453485;28;20128;-72
2023/06/07 03:54:00;;;;;;;3.92;1.85;;;;;;;19.57;76.75;100737.16;10454002;28;20068;-73
2023/06/07 03:59:01;;;;;;;3.13;1.80;;;;;;;19.72;75.92;100734.19;10452723;28;20041;-72
2023/06/07 04:04:02;;;;;;;14.30;2.25;;;;;;;20.16;74.16;100756.63;10427940;28;20037;-73
2023/06/07 04:09:03;;;;;;;4.40;2.20;;;;;;;20.38;73.16;100751.69;10400874;28;20053;-73
2023/06/07 04:14:04;;;;;;;3.95;1.75;;;;;;;20.37;71.84;100725.72;10419416;28;20521;-73
2023/06/07 04:19:05;;;;;;;4.38;1.90;;;;;;;20.63;70.14;100752.47;10419838;28;20132;-74
2023/06/07 04:24:06;;;;;;;3.35;1.65;;;;;;;20.39;69.32;100694.78;10419104;28;20134;-73
2023/06/07 04:29:07;;;;;;;3.53;1.60;;;;;;;21.90;67.44;100770.56;10425247;28;20534;-73
2023/06/07 04:34:09;;;;;;;2.38;1.35;;;;;;;22.92;63.01;100766.69;10440838;28;20037;-75
2023/06/07 04:39:10;;;;;;;2.50;1.60;;;;;;;23.71;60.18;100769.59;10453823;28;20076;-72
2023/06/07 04:44:15;;;;;;;8.95;1.92;;;;;;;23.63;59.11;100773.50;10437663;28;20095;-73
2023/06/07 04:49:17;;;;;;;3.17;1.65;;;;;;;22.63;58.64;100707.03;10446756;28;20156;-74
2023/06/07 04:54:17;;;;;;;6.30;1.70;;;;;;;22.42;59.18;100765.34;10455399;28;20513;-74
2023/06/07 04:59:18;;;;;;;13.45;2.28;;;;;;;22.06;60.47;100750.13;10459302;28;20087;-74
2023/06/07 05:04:19;;;;;;;2.53;1.33;;;;;;;22.22;59.67;100779.19;10458168;28;20040;-74
2023/06/07 05:09:20;;;;;;;3.80;1.52;;;;;;;22.31;59.95;100785.91;10458308;28;20064;-73
2023/06/07 05:14:21;;;;;;;8.68;1.55;;;;;;;22.02;59.61;100727.31;10458071;28;20128;-74
2023/06/07 05:19:22;;;;;;;7.57;1.60;;;;;;;22.53;58.42;100780.75;10458613;28;20037;-75
2023/06/07 05:24:22;;;;;;;26.00;2.33;;;;;;;22.58;59.29;100762.97;10457372;28;20049;-73
2023/06/07 05:29:23;;;;;;;8.60;1.73;;;;;;;22.86;58.09;100767.66;10451487;28;20438;-74
2023/06/07 05:34:24;;;;;;;4.47;1.55;;;;;;;23.02;56.70;100754.19;10424911;28;20073;-76
2023/06/07 05:39:25;;;;;;;2.75;1.40;;;;;;;22.80;55.90;100707.13;10445894;28;20043;-74
2023/06/07 05:44:26;;;;;;;10.73;1.88;;;;;;;23.40;54.77;100782.56;10450785;28;20044;-74
2023/06/07 05:49:27;;;;;;;5.53;1.50;;;;;;;22.90;54.39;100653.13;10457686;28;20136;-74
2023/06/07 05:54:28;;;;;;;2.63;1.30;;;;;;;23.63;54.23;100776.22;10457036;28;20128;-74
2023/06/07 05:59:28;;;;;;;5.20;1.65;;;;;;;23.19;54.51;100697.34;10456666;28;20045;-73
2023/06/07 06:04:29;;;;;;;3.60;1.40;;;;;;;23.60;53.47;100751.47;10438910;28;20071;-74
2023/06/07 06:09:30;;;;;;;3.50;1.65;;;;;;;23.79;53.72;100768.38;10438341;28;20061;-74
2023/06/07 06:14:31;;;;;;;3.72;1.95;;;;;;;23.71;55.66;100758.75;10455555;28;20459;-74
2023/06/07 06:19:32;;;;;;;5.18;2.03;;;;;;;23.83;57.79;100772.25;10452734;28;20036;-74
2023/06/07 06:24:34;;;;;;;3.42;1.70;;;;;;;23.88;57.61;100773.16;10454902;28;20679;-77
2023/06/07 06:29:35;;;;;;;3.75;1.90;;;;;;;23.93;58.18;100766.97;10453353;28;20110;-74
2023/06/07 06:34:36;;;;;;;7.95;2.40;;;;;;;24.08;57.46;100769.97;10437095;28;20045;-75
2023/06/07 06:39:36;;;;;;;11.40;2.17;;;;;;;24.20;56.15;100763.59;10455688;28;20048;-75
2023/06/07 06:44:37;;;;;;;17.83;2.80;;;;;;;23.64;55.90;100653.09;10418449;28;20045;-76
2023/06/07 06:49:38;;;;;;;11.70;1.80;;;;;;;24.38;54.13;100777.75;10445632;28;20131;-74
2023/06/07 06:54:39;;;;;;;3.55;1.75;;;;;;;24.38;54.65;100782.34;10454773;28;20496;-76
2023/06/07 06:59:40;;;;;;;7.53;2.03;;;;;;;24.38;54.97;100787.78;10454695;28;20041;-76
2023/06/07 07:04:41;;;;;;;6.43;1.70;;;;;;;24.28;54.63;100783.00;10426171;28;20049;-74
2023/06/07 07:09:42;;;;;;;4.38;1.85;;;;;;;23.86;55.86;100725.63;10413471;28;20064;-75
2023/06/07 07:14:42;;;;;;;5.65;2.17;;;;;;;24.10;56.62;100789.50;10413053;28;20033;-72
2023/06/07 07:19:43;;;;;;;8.23;2.10;;;;;;;23.92;56.46;100781.63;10395420;28;20042;-78
2023/06/07 07:24:44;;;;;;;3.53;1.80;;;;;;;23.30;57.07;100716.47;10412384;28;20041;-75
2023/06/07 07:29:44;;;;;;;6.80;2.70;;;;;;;23.63;57.17;100786.22;10413488;28;20452;-78
2023/06/07 07:34:45;;;;;;;11.35;2.70;;;;;;;23.44;57.28;100777.47;10413281;28;20044;-77
2023/06/07 07:39:46;;;;;;;3.72;2.05;;;;;;;23.26;57.85;100793.94;10412639;28;20037;-74
2023/06/07 07:44:47;;;;;;;15.63;3.40;;;;;;;22.91;58.19;100773.16;10403007;28;20497;-75
2023/06/07 07:49:47;;;;;;;10.77;2.75;;;;;;;22.51;58.42;100723.31;10420469;28;20041;-74
2023/06/07 07:54:48;;;;;;;9.10;2.67;;;;;;;22.83;58.16;100790.59;10419726;28;20065;-74
2023/06/07 13:07:32;;;;;;;8.43;1.90;;;;;;;26.40;44.56;100666.91;10441126;28;20755;-77
2023/06/07 13:12:33;;;;;;;4.38;1.60;;;;;;;26.57;43.70;100672.19;10441343;28;20101;-76
2023/06/07 13:17:45;;;;;;;21.27;2.88;;;;;;;26.71;43.37;100675.22;10440552;28;20041;-77
2023/06/07 13:22:48;;;;;;;3.72;1.75;;;;;;;26.78;43.21;100677.72;10429643;28;20038;-77
2023/06/07 13:27:49;;;;;;;3.22;1.70;;;;;;;26.67;42.47;100676.84;10425409;28;20415;-77
2023/06/07 13:32:50;;;;;;;3.08;2.03;;;;;;;26.60;42.41;100662.66;10424618;28;20068;-77
2023/06/07 13:37:51;;;;;;;3.95;1.80;;;;;;;26.14;42.65;100572.56;10421767;28;20041;-75
2023/06/07 13:42:51;;;;;;;5.82;1.52;;;;;;;26.79;42.22;100674.72;10434051;28;20392;-76
2023/06/07 13:47:52;;;;;;;6.53;1.80;;;;;;;26.32;41.05;100620.28;10418300;28;20503;-78
2023/06/07 13:52:53;;;;;;;14.77;2.50;;;;;;;26.60;41.68;100676.28;10399888;28;20071;-77
2023/06/07 13:57:54;;;;;;;7.90;2.38;;;;;;;26.39;40.75;100634.50;10399383;28;20101;-77
2023/06/07 14:02:56;;;;;;;10.82;2.25;;;;;;;26.43;40.61;100643.75;10398746;28;20077;-78
2023/06/07 14:07:56;;;;;;;4.47;1.95;;;;;;;26.40;40.16;100668.81;10373914;28;20412;-75
2023/06/07 14:12:57;;;;;;;4.45;2.00;;;;;;;26.46;40.31;100673.19;10371191;28;20046;-77
2023/06/07 14:17:58;;;;;;;2.97;1.65;;;;;;;26.58;40.14;100675.72;10371139;28;20045;-77
2023/06/07 14:22:59;;;;;;;8.13;2.40;;;;;;;26.54;40.30;100686.34;10395023;28;20043;-77
2023/06/07 14:28:00;;;;;;;6.47;2.00;;;;;;;26.41;40.23;100689.50;10411954;28;20041;-76
2023/06/07 14:33:01;;;;;;;9.20;1.90;;;;;;;26.35;40.29;100674.22;10411680;28;20449;-76
2023/06/07 14:38:01;;;;;;;3.97;2.00;;;;;;;26.42;39.88;100689.25;10411442;28;20408;-77
2023/06/07 14:43:02;;;;;;;3.45;1.70;;;;;;;25.90;39.76;100634.78;10410537;28;20045;-78
2023/06/07 14:48:03;;;;;;;11.55;2.28;;;;;;;25.93;41.15;100696.84;10411533;28;20041;-77
2023/06/07 14:53:04;;;;;;;7.38;2.03;;;;;;;25.86;41.47;100699.00;10411551;28;20050;-76
2023/06/07 14:58:05;;;;;;;14.20;2.40;;;;;;;25.92;41.78;100714.28;10408821;28;20094;-77
2023/06/07 15:03:06;;;;;;;4.18;1.85;;;;;;;25.83;41.09;100711.22;10409953;28;20515;-76
2023/06/07 15:08:07;;;;;;;9.02;2.35;;;;;;;25.62;41.08;100710.19;10410945;28;20050;-76
2023/06/07 15:13:07;;;;;;;8.68;2.58;;;;;;;25.47;41.34;100702.72;10409933;28;20065;-76
2023/06/07 15:18:08;;;;;;;8.38;2.40;;;;;;;25.08;42.55;100661.25;10407884;28;20045;-75
2023/06/07 15:23:09;;;;;;;17.67;2.80;;;;;;;25.37;43.12;100708.06;10409252;28;20053;-76
2023/06/07 15:28:10;;;;;;;4.07;1.80;;;;;;;24.74;42.84;100639.72;10409928;28;20034;-75
2023/06/07 15:33:12;;;;;;;16.27;2.15;;;;;;;25.04;44.07;100715.31;10407513;28;20030;-75
2023/06/07 15:38:13;;;;;;;11.52;2.30;;;;;;;24.89;44.11;100717.03;10405468;28;20181;-74
2023/06/07 15:43:14;;;;;;;11.38;2.50;;;;;;;24.50;44.45;100695.34;10404487;28;20211;-75
2023/06/07 15:48:14;;;;;;;12.77;2.70;;;;;;;23.98;45.28;100663.13;10409147;28;20053;-74
2023/06/07 15:53:18;;;;;;;16.30;2.97;;;;;;;23.75;46.28;100664.13;10402618;28;20037;-74
2023/06/07 15:58:19;;;;;;;9.52;2.28;;;;;;;23.89;46.61;100725.94;10397627;28;20037;-74
2023/06/07 16:03:20;;;;;;;9.40;1.98;;;;;;;23.60;47.75;100721.63;10388802;28;20062;-74
2023/06/07 16:08:21;;;;;;;8.52;2.30;;;;;;;23.33;47.97;100716.00;10389621;28;20038;-74
2023/06/07 16:13:22;;;;;;;9.13;1.92;;;;;;;23.15;48.86;100715.13;10384591;28;20083;-74
2023/06/07 16:18:22;;;;;;;13.10;2.50;;;;;;;22.92;49.70;100723.34;10392322;28;20033;-74
2023/06/07 16:23:23;;;;;;;16.95;2.45;;;;;;;22.68;50.24;100726.09;10394801;28;20041;-74
2023/06/07 16:28:24;;;;;;;16.05;3.35;;;;;;;21.53;51.25;100591.47;10385575;28;20038;-75
2023/06/07 16:33:25;;;;;;;9.18;2.35;;;;;;;21.08;51.85;100562.25;10406969;28;20038;-74
2023/06/07 16:38:26;;;;;;;5.75;2.00;;;;;;;21.85;52.27;100717.16;10407840;28;20046;-74
2023/06/07 16:43:26;;;;;;;11.60;2.42;;;;;;;21.76;53.02;100731.25;10405169;28;20053;-74
2023/06/07 16:48:27;;;;;;;4.97;2.20;;;;;;;21.58;53.79;100737.56;10407537;28;20034;-74
2023/06/07 16:53:28;;;;;;;10.68;4.18;;;;;;;21.27;55.51;100725.94;10406727;28;20167;-75
2023/06/07 16:58:29;;;;;;;14.10;5.07;;;;;;;20.87;56.75;100715.63;10407186;28;20039;-74
2023/06/07 17:03:30;;;;;;;13.55;5.90;;;;;;;20.57;57.82;100731.78;10406908;28;20500;-75
2023/06/07 17:08:31;;;;;;;16.58;11.20;;;;;;;19.96;58.78;100675.94;10406277;28;20052;-75
2023/06/07 17:13:31;;;;;;;10.00;5.93;;;;;;;19.99;59.58;100724.84;10406100;28;20044;-75
2023/06/07 17:18:32;;;;;;;9.80;3.88;;;;;;;19.92;60.46;100751.03;10406322;28;20067;-75
2023/06/07 17:23:33;;;;;;;13.57;3.58;;;;;;;19.67;60.58;100734.03;10406617;28;20045;-74
2023/06/07 17:28:34;;;;;;;12.00;5.13;;;;;;;19.07;61.94;100677.78;10406220;28;20071;-75
2023/06/07 17:33:35;;;;;;;13.07;2.92;;;;;;;19.25;62.67;100747.91;10405577;28;20038;-75
2023/06/07 17:38:36;;;;;;;6.82;2.20;;;;;;;18.46;63.30;100652.16;10406289;28;20049;-74
2023/06/07 17:43:37;;;;;;;8.60;2.75;;;;;;;19.01;64.17;100749.47;10411704;28;20041;-75
2023/06/07 17:48:37;;;;;;;16.42;7.75;;;;;;;18.93;64.94;100774.78;10409965;28;20049;-74
2023/06/07 17:53:39;;;;;;;41.28;16.33;;;;;;;18.75;65.73;100773.78;10411039;28;20072;-73
2023/06/07 17:58:40;;;;;;;38.33;12.00;;;;;;;18.56;66.16;100778.97;10412096;28;20042;-73
2023/06/07 18:03:41;;;;;;;22.73;9.85;;;;;;;18.45;66.29;100782.31;10411134;28;20061;-73
2023/06/07 18:08:42;;;;;;;15.68;5.35;;;;;;;18.36;67.02;100787.06;10411708;28;20041;-73
2023/06/07 18:13:42;;;;;;;9.50;3.88;;;;;;;18.30;67.40;100787.09;10412223;28;20067;-73
2023/06/07 18:18:43;;;;;;;12.15;3.72;;;;;;;18.20;67.80;100780.25;10411922;28;20041;-72
2023/06/07 18:23:44;;;;;;;13.57;7.25;;;;;;;18.01;68.38;100778.41;10392367;28;20073;-73
2023/06/07 18:28:45;;;;;;;10.48;3.25;;;;;;;17.97;69.30;100791.41;10399319;28;20168;-73
2023/06/07 18:33:45;;;;;;;13.68;6.85;;;;;;;17.83;70.18;100780.84;10411867;28;20510;-72
2023/06/07 18:38:46;;;;;;;98.25;43.67;;;;;;;17.64;71.02;100763.66;10409214;28;20695;-74
2023/06/07 18:43:47;;;;;;;149.00;50.65;;;;;;;17.56;71.78;100775.44;10410434;28;20518;-73
2023/06/07 18:48:48;;;;;;;46.13;18.92;;;;;;;17.36;72.94;100769.19;10412089;28;20038;-73
2023/06/07 18:53:49;;;;;;;25.40;7.82;;;;;;;17.39;73.26;100783.03;10410663;28;20465;-72
2023/06/07 18:58:50;;;;;;;24.08;8.15;;;;;;;17.24;73.68;100775.13;10410627;28;20049;-74
2023/06/07 19:03:51;;;;;;;24.30;8.15;;;;;;;17.21;73.80;100780.91;10410124;28;20057;-72
2023/06/07 19:08:52;;;;;;;20.33;8.05;;;;;;;17.13;74.44;100781.06;10410052;28;20559;-71
2023/06/07 19:13:53;;;;;;;25.90;12.25;;;;;;;16.94;74.71;100763.03;10409270;28;20095;-72
2023/06/07 19:18:53;;;;;;;27.88;12.18;;;;;;;16.97;75.37;100794.84;10409707;28;20038;-72
2023/06/07 19:23:54;;;;;;;27.85;10.10;;;;;;;16.94;76.32;100790.69;10410476;28;20041;-72
2023/06/07 19:28:57;;;;;;;27.85;10.20;;;;;;;16.93;76.12;100798.94;10410077;28;20084;-71
2023/06/07 19:33:59;;;;;;;38.47;11.77;;;;;;;16.63;76.18;100756.22;10408844;28;20049;-72
2023/06/07 19:38:59;;;;;;;34.72;13.90;;;;;;;16.73;76.77;100788.91;10408930;28;20115;-72
2023/06/07 19:44:00;;;;;;;46.13;17.15;;;;;;;16.05;77.24;100696.66;10409297;28;20695;-72
2023/06/07 19:49:01;;;;;;;69.88;21.85;;;;;;;16.52;78.00;100797.03;10408588;28;20033;-72
2023/06/07 19:54:02;;;;;;;27.35;11.18;;;;;;;16.37;78.74;100805.97;10408538;28;20170;-72
2023/06/07 19:59:03;;;;;;;24.48;8.90;;;;;;;16.17;78.81;100780.88;10407929;28;20065;-73
2023/06/07 20:04:04;;;;;;;27.13;8.50;;;;;;;16.15;79.14;100789.13;10407475;28;20070;-72
2023/06/07 20:09:05;;;;;;;21.75;7.57;;;;;;;16.26;79.53;100801.16;10408842;28;20086;-72
2023/06/07 20:14:06;;;;;;;26.20;8.05;;;;;;;15.80;79.79;100718.53;10408382;28;20059;-72
2023/06/07 20:19:07;;;;;;;23.92;8.77;;;;;;;16.15;80.00;100790.94;10408287;28;20051;-72
2023/06/07 20:24:12;;;;;;;24.10;10.60;;;;;;;16.03;80.24;100784.44;10408756;28;20045;-72
2023/06/07 20:29:14;;;;;;;28.42;11.63;;;;;;;15.15;80.93;100647.25;10406932;28;20034;-72
2023/06/07 20:34:15;;;;;;;47.17;17.00;;;;;;;15.85;81.00;100796.44;10406587;28;20133;-72
2023/06/07 20:39:15;;;;;;;46.30;14.38;;;;;;;15.86;81.39;100802.66;10408687;28;20488;-73
2023/06/07 20:44:16;;;;;;;30.35;11.02;;;;;;;15.68;81.73;100777.13;10406540;28;20046;-72
2023/06/07 20:49:17;;;;;;;24.50;8.63;;;;;;;15.80;82.86;100793.53;10406885;28;20124;-72
2023/06/07 20:54:18;;;;;;;24.75;9.48;;;;;;;15.71;82.83;100802.72;10406631;28;20045;-72
2023/06/07 20:59:18;;;;;;;26.88;8.90;;;;;;;15.61;83.68;100794.94;10406758;28;20090;-72
2023/06/07 21:04:19;;;;;;;30.45;7.97;;;;;;;15.25;83.65;100782.38;10406392;28;20065;-73
2023/06/07 21:09:20;;;;;;;13.35;6.57;;;;;;;14.89;84.35;100728.84;10406933;28;20037;-72
2023/06/07 21:14:21;;;;;;;13.10;7.05;;;;;;;15.25;84.69;100795.78;10406706;28;20116;-72
2023/06/07 21:19:22;;;;;;;18.88;7.03;;;;;;;15.17;84.95;100793.22;10414301;28;20131;-72
2023/06/07 21:24:23;;;;;;;18.38;7.18;;;;;;;15.15;85.59;100803.28;10413989;28;20489;-72
2023/06/07 21:29:23;;;;;;;19.30;8.32;;;;;;;15.20;85.88;100794.69;10414324;28;20110;-72
2023/06/07 21:34:24;;;;;;;22.55;8.32;;;;;;;15.10;86.13;100776.25;10412795;28;20052;-72
2023/06/07 21:39:25;;;;;;;13.30;6.78;;;;;;;15.14;86.03;100793.59;10414020;28;20037;-72
2023/06/07 21:44:26;;;;;;;17.48;6.78;;;;;;;15.09;86.10;100795.16;10413413;28;20132;-73
2023/06/07 21:49:27;;;;;;;17.00;7.53;;;;;;;14.96;86.91;100774.44;10412375;28;20045;-72
2023/06/07 21:54:27;;;;;;;13.35;6.55;;;;;;;14.57;86.74;100714.06;10413821;28;20488;-72
2023/06/07 21:59:28;;;;;;;13.48;6.10;;;;;;;14.32;86.92;100695.56;10412885;28;20045;-72
2023/06/07 22:04:29;;;;;;;15.15;6.53;;;;;;;14.76;87.31;100790.22;10413120;28;20497;-72
2023/06/07 22:09:30;;;;;;;11.85;5.43;;;;;;;14.25;87.92;100707.19;10412420;28;20062;-72
2023/06/07 22:14:32;;;;;;;11.65;5.47;;;;;;;14.69;88.00;100779.41;10411625;28;20042;-72
2023/06/07 22:19:34;;;;;;;10.75;4.80;;;;;;;14.06;88.34;100697.84;10410568;28;20500;-72
2023/06/07 22:24:35;;;;;;;18.35;5.80;;;;;;;14.47;88.98;100786.44;10411907;28;20052;-72
2023/06/07 22:29:35;;;;;;;12.30;4.82;;;;;;;14.43;89.31;100781.66;10410619;28;20045;-72
2023/06/07 22:34:36;;;;;;;8.75;4.95;;;;;;;14.38;89.12;100774.19;10411130;28;20041;-72
2023/06/07 22:39:38;;;;;;;10.80;4.60;;;;;;;14.32;89.26;100777.59;10412059;28;20370;-72
2023/06/07 22:44:39;;;;;;;14.02;5.50;;;;;;;14.14;89.29;100751.19;10410307;28;20489;-72
2023/06/07 22:49:42;;;;;;;9.82;5.40;;;;;;;14.33;89.54;100785.44;10410517;28;20041;-72
2023/06/07 22:54:44;;;;;;;16.85;4.55;;;;;;;14.32;90.13;100781.09;10411438;28;20042;-72
2023/06/07 22:59:45;;;;;;;10.35;4.88;;;;;;;14.28;89.76;100797.69;10410363;28;20041;-72
2023/06/07 23:04:45;;;;;;;9.20;4.43;;;;;;;14.10;89.97;100780.13;10410280;28;20547;-72
2023/06/07 23:09:46;;;;;;;14.13;4.22;;;;;;;14.06;89.87;100776.16;10410909;28;20051;-72
2023/06/07 23:14:48;;;;;;;11.15;4.47;;;;;;;14.09;90.00;100799.84;10410745;28;20037;-72
2023/06/07 23:19:50;;;;;;;13.75;3.97;;;;;;;14.10;90.70;100798.00;10410196;28;20461;-72
2023/06/07 23:24:51;;;;;;;11.27;4.35;;;;;;;13.42;91.25;100687.56;10410620;28;20045;-72
2023/06/07 23:29:52;;;;;;;7.38;4.32;;;;;;;13.82;91.32;100774.53;10409450;28;20128;-72
2023/06/07 23:34:53;;;;;;;7.95;4.20;;;;;;;13.94;91.47;100788.28;10409090;28;20037;-72
2023/06/07 23:39:53;;;;;;;7.22;3.90;;;;;;;13.75;91.35;100772.72;10408619;28;20050;-72
2023/06/07 23:44:57;;;;;;;6.88;3.50;;;;;;;13.61;91.04;100758.31;10408857;28;20041;-72
2023/06/07 23:49:59;;;;;;;;;;;;;;;13.91;91.33;100785.97;10408780;28;20086;-72
2023/06/07 23:55:00;;;;;;;8.02;4.15;;;;;;;13.69;90.48;100793.78;10407859;28;19936;-72
